sensor_id;sensor_type;location;lat;lon;timestamp;P1;durP1;ratioP1;P2;durP2;ratioP2
4317;SDS011;2172;53.576;9.934;2022-12-20T00:01:38;14.20;;;10.13;;
4317;SDS011;2172;53.576;9.934;2022-12-20T00:04:07;15.80;;;11.80;;
4317;SDS011;2172;53.576;9.934;2022-12-20T00:06:35;15.23;;;12.30;;
4317;SDS011;2172;53.576;9.934;2022-12-20T00:09:03;14.97;;;10.70;;
4317;SDS011;2172;53.576;9.934;2022-12-20T00:11:31;15.20;;;11.23;;
4317;SDS011;2172;53.576;9.934;2022-12-20T00:13:58;17.03;;;12.17;;
4317;SDS011;2172;53.576;9.934;2022-12-20T00:16:26;16.50;;;11.63;;
4317;SDS011;2172;53.576;9.934;2022-12-20T00:18:54;14.20;;;11.03;;
4317;SDS011;2172;53.576;9.934;2022-12-20T00:21:23;18.90;;;13.40;;
4317;SDS011;2172;53.576;9.934;2022-12-20T00:23:50;16.80;;;11.13;;
4317;SDS011;2172;53.576;9.934;2022-12-20T00:26:19;15.00;;;11.77;;
4317;SDS011;2172;53.576;9.934;2022-12-20T00:28:46;13.80;;;10.43;;
4317;SDS011;2172;53.576;9.934;2022-12-20T00:31:15;14.63;;;10.70;;
4317;SDS011;2172;53.576;9.934;2022-12-20T00:33:43;18.40;;;12.30;;
4317;SDS011;2172;53.576;9.934;2022-12-20T00:36:11;15.77;;;11.47;;
4317;SDS011;2172;53.576;9.934;2022-12-20T00:38:40;13.20;;;10.43;;
4317;SDS011;2172;53.576;9.934;2022-12-20T00:41:09;15.50;;;11.37;;
4317;SDS011;2172;53.576;9.934;2022-12-20T00:43:36;13.73;;;11.37;;
4317;SDS011;2172;53.576;9.934;2022-12-20T00:46:05;13.33;;;10.87;;
4317;SDS011;2172;53.576;9.934;2022-12-20T00:48:33;17.07;;;11.23;;
4317;SDS011;2172;53.576;9.934;2022-12-20T00:51:01;15.90;;;11.37;;
4317;SDS011;2172;53.576;9.934;2022-12-20T00:53:29;13.70;;;10.73;;
4317;SDS011;2172;53.576;9.934;2022-12-20T00:55:58;13.07;;;10.33;;
4317;SDS011;2172;53.576;9.934;2022-12-20T00:58:26;14.67;;;10.93;;
4317;SDS011;2172;53.576;9.934;2022-12-20T01:00:55;16.13;;;10.77;;
4317;SDS011;2172;53.576;9.934;2022-12-20T01:03:22;15.23;;;10.63;;
4317;SDS011;2172;53.576;9.934;2022-12-20T01:05:50;16.33;;;11.33;;
4317;SDS011;2172;53.576;9.934;2022-12-20T01:08:18;15.83;;;11.43;;
4317;SDS011;2172;53.576;9.934;2022-12-20T01:10:46;16.03;;;11.00;;
4317;SDS011;2172;53.576;9.934;2022-12-20T01:13:14;15.80;;;11.80;;
4317;SDS011;2172;53.576;9.934;2022-12-20T01:15:42;13.20;;;11.47;;
4317;SDS011;2172;53.576;9.934;2022-12-20T01:18:09;18.63;;;12.60;;
4317;SDS011;2172;53.576;9.934;2022-12-20T01:20:36;14.83;;;11.70;;
4317;SDS011;2172;53.576;9.934;2022-12-20T01:23:04;15.37;;;10.77;;
4317;SDS011;2172;53.576;9.934;2022-12-20T01:25:31;18.70;;;12.53;;
4317;SDS011;2172;53.576;9.934;2022-12-20T01:27:58;16.20;;;11.73;;
4317;SDS011;2172;53.576;9.934;2022-12-20T01:30:27;16.90;;;12.00;;
4317;SDS011;2172;53.576;9.934;2022-12-20T01:32:54;15.83;;;11.10;;
4317;SDS011;2172;53.576;9.934;2022-12-20T01:35:22;13.50;;;9.53;;
4317;SDS011;2172;53.576;9.934;2022-12-20T01:37:49;13.90;;;10.77;;
4317;SDS011;2172;53.576;9.934;2022-12-20T01:40:16;16.57;;;10.97;;
4317;SDS011;2172;53.576;9.934;2022-12-20T01:42:45;11.57;;;10.37;;
4317;SDS011;2172;53.576;9.934;2022-12-20T01:45:13;14.97;;;9.97;;
4317;SDS011;2172;53.576;9.934;2022-12-20T01:47:47;14.70;;;10.87;;
4317;SDS011;2172;53.576;9.934;2022-12-20T01:50:15;12.33;;;10.03;;
4317;SDS011;2172;53.576;9.934;2022-12-20T01:52:42;13.73;;;9.47;;
4317;SDS011;2172;53.576;9.934;2022-12-20T01:55:11;13.30;;;8.90;;
4317;SDS011;2172;53.576;9.934;2022-12-20T01:57:41;13.77;;;10.50;;
4317;SDS011;2172;53.576;9.934;2022-12-20T02:00:11;13.50;;;9.37;;
4317;SDS011;2172;53.576;9.934;2022-12-20T02:02:39;11.50;;;9.47;;
4317;SDS011;2172;53.576;9.934;2022-12-20T02:05:08;14.17;;;10.60;;
4317;SDS011;2172;53.576;9.934;2022-12-20T02:07:36;11.07;;;9.67;;
4317;SDS011;2172;53.576;9.934;2022-12-20T02:10:05;11.30;;;9.27;;
4317;SDS011;2172;53.576;9.934;2022-12-20T02:12:36;13.30;;;9.80;;
4317;SDS011;2172;53.576;9.934;2022-12-20T02:15:07;15.23;;;10.40;;
4317;SDS011;2172;53.576;9.934;2022-12-20T02:17:42;14.00;;;10.83;;
4317;SDS011;2172;53.576;9.934;2022-12-20T02:23:04;13.00;;;9.83;;
4317;SDS011;2172;53.576;9.934;2022-12-20T02:25:41;13.40;;;10.07;;
4317;SDS011;2172;53.576;9.934;2022-12-20T02:28:13;10.63;;;8.60;;
4317;SDS011;2172;53.576;9.934;2022-12-20T02:30:44;14.10;;;9.70;;
4317;SDS011;2172;53.576;9.934;2022-12-20T02:33:13;12.53;;;9.53;;
4317;SDS011;2172;53.576;9.934;2022-12-20T02:35:41;11.97;;;9.03;;
4317;SDS011;2172;53.576;9.934;2022-12-20T02:38:25;12.30;;;10.00;;
4317;SDS011;2172;53.576;9.934;2022-12-20T02:40:53;11.40;;;8.87;;
4317;SDS011;2172;53.576;9.934;2022-12-20T02:43:22;11.30;;;9.87;;
4317;SDS011;2172;53.576;9.934;2022-12-20T02:46:09;11.47;;;9.27;;
4317;SDS011;2172;53.576;9.934;2022-12-20T02:48:37;11.00;;;8.60;;
4317;SDS011;2172;53.576;9.934;2022-12-20T02:51:05;12.10;;;9.83;;
4317;SDS011;2172;53.576;9.934;2022-12-20T02:53:34;12.10;;;8.00;;
4317;SDS011;2172;53.576;9.934;2022-12-20T02:56:03;13.73;;;10.00;;
4317;SDS011;2172;53.576;9.934;2022-12-20T02:58:35;10.90;;;8.23;;
4317;SDS011;2172;53.576;9.934;2022-12-20T03:01:05;11.80;;;9.40;;
4317;SDS011;2172;53.576;9.934;2022-12-20T03:03:35;12.10;;;8.97;;
4317;SDS011;2172;53.576;9.934;2022-12-20T03:06:02;14.60;;;9.87;;
4317;SDS011;2172;53.576;9.934;2022-12-20T03:08:30;14.20;;;9.30;;
4317;SDS011;2172;53.576;9.934;2022-12-20T03:10:58;11.93;;;9.17;;
4317;SDS011;2172;53.576;9.934;2022-12-20T03:13:27;13.00;;;9.07;;
4317;SDS011;2172;53.576;9.934;2022-12-20T03:16:07;12.63;;;9.10;;
4317;SDS011;2172;53.576;9.934;2022-12-20T03:18:36;15.07;;;10.40;;
4317;SDS011;2172;53.576;9.934;2022-12-20T03:21:04;13.50;;;10.73;;
4317;SDS011;2172;53.576;9.934;2022-12-20T03:23:32;13.13;;;9.70;;
4317;SDS011;2172;53.576;9.934;2022-12-20T03:25:59;14.00;;;9.97;;
4317;SDS011;2172;53.576;9.934;2022-12-20T03:28:32;13.70;;;9.40;;
4317;SDS011;2172;53.576;9.934;2022-12-20T03:31:00;13.07;;;8.20;;
4317;SDS011;2172;53.576;9.934;2022-12-20T03:33:29;12.03;;;9.63;;
4317;SDS011;2172;53.576;9.934;2022-12-20T03:36:01;12.00;;;9.23;;
4317;SDS011;2172;53.576;9.934;2022-12-20T03:38:28;12.13;;;8.87;;
4317;SDS011;2172;53.576;9.934;2022-12-20T03:40:56;12.43;;;8.43;;
4317;SDS011;2172;53.576;9.934;2022-12-20T03:43:23;11.77;;;7.80;;
4317;SDS011;2172;53.576;9.934;2022-12-20T03:45:50;12.43;;;10.30;;
4317;SDS011;2172;53.576;9.934;2022-12-20T03:48:18;13.40;;;8.70;;
4317;SDS011;2172;53.576;9.934;2022-12-20T03:50:46;15.50;;;8.80;;
4317;SDS011;2172;53.576;9.934;2022-12-20T03:53:15;11.30;;;7.60;;
4317;SDS011;2172;53.576;9.934;2022-12-20T03:55:42;9.53;;;7.00;;
4317;SDS011;2172;53.576;9.934;2022-12-20T03:58:10;13.47;;;8.50;;
4317;SDS011;2172;53.576;9.934;2022-12-20T04:00:37;11.20;;;8.80;;
4317;SDS011;2172;53.576;9.934;2022-12-20T04:03:25;11.00;;;7.93;;
4317;SDS011;2172;53.576;9.934;2022-12-20T04:05:52;11.20;;;8.10;;
4317;SDS011;2172;53.576;9.934;2022-12-20T04:08:21;13.83;;;9.47;;
4317;SDS011;2172;53.576;9.934;2022-12-20T04:10:50;11.77;;;9.13;;
4317;SDS011;2172;53.576;9.934;2022-12-20T04:13:37;11.33;;;8.70;;
4317;SDS011;2172;53.576;9.934;2022-12-20T04:16:06;10.93;;;7.30;;
4317;SDS011;2172;53.576;9.934;2022-12-20T04:18:33;8.60;;;7.77;;
4317;SDS011;2172;53.576;9.934;2022-12-20T04:21:02;8.57;;;7.70;;
4317;SDS011;2172;53.576;9.934;2022-12-20T04:23:33;9.33;;;7.97;;
4317;SDS011;2172;53.576;9.934;2022-12-20T04:26:03;11.73;;;9.00;;
4317;SDS011;2172;53.576;9.934;2022-12-20T04:28:32;11.40;;;8.00;;
4317;SDS011;2172;53.576;9.934;2022-12-20T04:30:59;8.50;;;7.47;;
4317;SDS011;2172;53.576;9.934;2022-12-20T04:33:29;9.10;;;7.43;;
4317;SDS011;2172;53.576;9.934;2022-12-20T04:35:57;11.17;;;8.37;;
4317;SDS011;2172;53.576;9.934;2022-12-20T04:38:25;11.57;;;8.33;;
4317;SDS011;2172;53.576;9.934;2022-12-20T04:40:55;10.27;;;8.50;;
4317;SDS011;2172;53.576;9.934;2022-12-20T04:43:24;9.53;;;7.43;;
4317;SDS011;2172;53.576;9.934;2022-12-20T04:45:58;9.37;;;6.73;;
4317;SDS011;2172;53.576;9.934;2022-12-20T04:48:26;7.70;;;6.13;;
4317;SDS011;2172;53.576;9.934;2022-12-20T04:50:55;10.77;;;8.37;;
4317;SDS011;2172;53.576;9.934;2022-12-20T04:53:24;11.60;;;7.80;;
4317;SDS011;2172;53.576;9.934;2022-12-20T04:56:10;12.60;;;11.27;;
4317;SDS011;2172;53.576;9.934;2022-12-20T04:58:38;10.13;;;7.23;;
4317;SDS011;2172;53.576;9.934;2022-12-20T05:01:08;13.90;;;10.57;;
4317;SDS011;2172;53.576;9.934;2022-12-20T05:03:43;23.80;;;18.00;;
4317;SDS011;2172;53.576;9.934;2022-12-20T05:06:12;9.37;;;8.03;;
4317;SDS011;2172;53.576;9.934;2022-12-20T05:08:40;14.10;;;9.53;;
4317;SDS011;2172;53.576;9.934;2022-12-20T05:11:07;12.43;;;8.90;;
4317;SDS011;2172;53.576;9.934;2022-12-20T05:13:36;13.47;;;9.10;;
4317;SDS011;2172;53.576;9.934;2022-12-20T05:16:05;10.10;;;8.17;;
4317;SDS011;2172;53.576;9.934;2022-12-20T05:18:33;12.87;;;9.10;;
4317;SDS011;2172;53.576;9.934;2022-12-20T05:21:04;11.10;;;8.87;;
4317;SDS011;2172;53.576;9.934;2022-12-20T05:23:51;11.97;;;9.87;;
4317;SDS011;2172;53.576;9.934;2022-12-20T05:26:49;17.67;;;13.97;;
4317;SDS011;2172;53.576;9.934;2022-12-20T05:29:19;12.27;;;9.80;;
4317;SDS011;2172;53.576;9.934;2022-12-20T05:31:46;16.40;;;12.00;;
4317;SDS011;2172;53.576;9.934;2022-12-20T05:34:14;13.23;;;9.50;;
4317;SDS011;2172;53.576;9.934;2022-12-20T05:36:47;20.13;;;16.00;;
4317;SDS011;2172;53.576;9.934;2022-12-20T05:39:15;18.33;;;13.70;;
4317;SDS011;2172;53.576;9.934;2022-12-20T05:41:44;21.30;;;18.13;;
4317;SDS011;2172;53.576;9.934;2022-12-20T05:44:11;11.20;;;9.10;;
4317;SDS011;2172;53.576;9.934;2022-12-20T05:46:44;14.00;;;10.93;;
4317;SDS011;2172;53.576;9.934;2022-12-20T05:49:17;13.20;;;9.93;;
4317;SDS011;2172;53.576;9.934;2022-12-20T05:51:44;16.10;;;11.03;;
4317;SDS011;2172;53.576;9.934;2022-12-20T05:54:20;21.87;;;14.53;;
4317;SDS011;2172;53.576;9.934;2022-12-20T05:57:03;18.57;;;11.87;;
4317;SDS011;2172;53.576;9.934;2022-12-20T05:59:34;10.63;;;9.03;;
4317;SDS011;2172;53.576;9.934;2022-12-20T06:02:05;15.50;;;10.77;;
4317;SDS011;2172;53.576;9.934;2022-12-20T06:04:33;12.23;;;9.70;;
4317;SDS011;2172;53.576;9.934;2022-12-20T06:07:07;12.17;;;7.90;;
4317;SDS011;2172;53.576;9.934;2022-12-20T06:09:36;10.53;;;8.40;;
4317;SDS011;2172;53.576;9.934;2022-12-20T06:12:08;11.63;;;9.27;;
4317;SDS011;2172;53.576;9.934;2022-12-20T06:14:37;11.80;;;8.43;;
4317;SDS011;2172;53.576;9.934;2022-12-20T06:17:06;11.87;;;8.40;;
4317;SDS011;2172;53.576;9.934;2022-12-20T06:19:33;12.87;;;9.03;;
4317;SDS011;2172;53.576;9.934;2022-12-20T06:22:01;12.83;;;8.47;;
4317;SDS011;2172;53.576;9.934;2022-12-20T06:24:39;12.30;;;9.33;;
4317;SDS011;2172;53.576;9.934;2022-12-20T06:27:07;11.60;;;9.10;;
4317;SDS011;2172;53.576;9.934;2022-12-20T06:29:36;11.90;;;9.07;;
4317;SDS011;2172;53.576;9.934;2022-12-20T06:32:09;12.30;;;9.50;;
4317;SDS011;2172;53.576;9.934;2022-12-20T06:34:38;14.13;;;10.10;;
4317;SDS011;2172;53.576;9.934;2022-12-20T06:37:05;13.13;;;9.40;;
4317;SDS011;2172;53.576;9.934;2022-12-20T06:39:33;10.83;;;9.13;;
4317;SDS011;2172;53.576;9.934;2022-12-20T06:42:02;14.77;;;9.63;;
4317;SDS011;2172;53.576;9.934;2022-12-20T06:44:29;12.00;;;10.03;;
4317;SDS011;2172;53.576;9.934;2022-12-20T06:46:57;15.37;;;8.60;;
4317;SDS011;2172;53.576;9.934;2022-12-20T06:49:26;16.03;;;9.37;;
4317;SDS011;2172;53.576;9.934;2022-12-20T06:51:54;12.80;;;9.50;;
4317;SDS011;2172;53.576;9.934;2022-12-20T06:54:31;10.33;;;8.00;;
4317;SDS011;2172;53.576;9.934;2022-12-20T06:56:58;11.57;;;8.33;;
4317;SDS011;2172;53.576;9.934;2022-12-20T06:59:26;11.23;;;8.83;;
4317;SDS011;2172;53.576;9.934;2022-12-20T07:01:54;10.53;;;8.53;;
4317;SDS011;2172;53.576;9.934;2022-12-20T07:04:21;11.57;;;7.87;;
4317;SDS011;2172;53.576;9.934;2022-12-20T07:06:50;11.27;;;7.70;;
4317;SDS011;2172;53.576;9.934;2022-12-20T07:09:17;12.20;;;8.00;;
4317;SDS011;2172;53.576;9.934;2022-12-20T07:11:45;11.30;;;8.07;;
4317;SDS011;2172;53.576;9.934;2022-12-20T07:14:12;11.87;;;8.80;;
4317;SDS011;2172;53.576;9.934;2022-12-20T07:16:39;12.33;;;9.23;;
4317;SDS011;2172;53.576;9.934;2022-12-20T07:19:09;13.80;;;9.57;;
4317;SDS011;2172;53.576;9.934;2022-12-20T07:21:36;12.90;;;9.93;;
4317;SDS011;2172;53.576;9.934;2022-12-20T07:24:05;10.80;;;8.50;;
4317;SDS011;2172;53.576;9.934;2022-12-20T07:26:33;13.83;;;9.50;;
4317;SDS011;2172;53.576;9.934;2022-12-20T07:29:00;11.90;;;8.93;;
4317;SDS011;2172;53.576;9.934;2022-12-20T07:31:28;15.70;;;8.50;;
4317;SDS011;2172;53.576;9.934;2022-12-20T07:33:55;14.93;;;10.80;;
4317;SDS011;2172;53.576;9.934;2022-12-20T07:36:23;12.43;;;10.37;;
4317;SDS011;2172;53.576;9.934;2022-12-20T07:38:50;14.63;;;10.00;;
4317;SDS011;2172;53.576;9.934;2022-12-20T07:41:19;12.50;;;10.83;;
4317;SDS011;2172;53.576;9.934;2022-12-20T07:43:46;12.70;;;10.00;;
4317;SDS011;2172;53.576;9.934;2022-12-20T07:46:13;14.40;;;11.47;;
4317;SDS011;2172;53.576;9.934;2022-12-20T07:48:41;13.43;;;10.03;;
4317;SDS011;2172;53.576;9.934;2022-12-20T07:51:09;13.70;;;9.60;;
4317;SDS011;2172;53.576;9.934;2022-12-20T07:53:39;13.87;;;10.27;;
4317;SDS011;2172;53.576;9.934;2022-12-20T07:56:06;16.70;;;9.23;;
4317;SDS011;2172;53.576;9.934;2022-12-20T07:58:37;12.60;;;10.37;;
4317;SDS011;2172;53.576;9.934;2022-12-20T08:01:05;16.07;;;10.37;;
4317;SDS011;2172;53.576;9.934;2022-12-20T08:03:35;13.67;;;9.83;;
4317;SDS011;2172;53.576;9.934;2022-12-20T08:06:03;12.30;;;9.70;;
4317;SDS011;2172;53.576;9.934;2022-12-20T08:08:31;12.03;;;9.77;;
4317;SDS011;2172;53.576;9.934;2022-12-20T08:10:58;11.73;;;9.53;;
4317;SDS011;2172;53.576;9.934;2022-12-20T08:13:25;13.53;;;10.30;;
4317;SDS011;2172;53.576;9.934;2022-12-20T08:15:54;11.73;;;9.57;;
4317;SDS011;2172;53.576;9.934;2022-12-20T08:18:22;12.27;;;9.80;;
4317;SDS011;2172;53.576;9.934;2022-12-20T08:20:49;12.03;;;9.10;;
4317;SDS011;2172;53.576;9.934;2022-12-20T08:23:17;10.30;;;8.23;;
4317;SDS011;2172;53.576;9.934;2022-12-20T08:25:44;8.23;;;7.33;;
4317;SDS011;2172;53.576;9.934;2022-12-20T08:28:12;9.70;;;8.70;;
4317;SDS011;2172;53.576;9.934;2022-12-20T08:30:39;10.70;;;8.93;;
4317;SDS011;2172;53.576;9.934;2022-12-20T08:33:08;9.60;;;8.40;;
4317;SDS011;2172;53.576;9.934;2022-12-20T08:35:35;12.23;;;8.30;;
4317;SDS011;2172;53.576;9.934;2022-12-20T08:38:03;11.40;;;9.23;;
4317;SDS011;2172;53.576;9.934;2022-12-20T08:40:30;12.80;;;8.70;;
4317;SDS011;2172;53.576;9.934;2022-12-20T08:42:57;13.73;;;8.70;;
4317;SDS011;2172;53.576;9.934;2022-12-20T08:45:25;11.53;;;8.87;;
4317;SDS011;2172;53.576;9.934;2022-12-20T08:47:52;11.60;;;7.93;;
4317;SDS011;2172;53.576;9.934;2022-12-20T08:50:21;9.60;;;8.47;;
4317;SDS011;2172;53.576;9.934;2022-12-20T08:52:48;10.50;;;8.07;;
4317;SDS011;2172;53.576;9.934;2022-12-20T08:55:16;11.57;;;8.93;;
4317;SDS011;2172;53.576;9.934;2022-12-20T08:57:43;9.87;;;8.57;;
4317;SDS011;2172;53.576;9.934;2022-12-20T09:00:11;10.53;;;7.73;;
4317;SDS011;2172;53.576;9.934;2022-12-20T09:02:38;12.53;;;8.97;;
4317;SDS011;2172;53.576;9.934;2022-12-20T09:05:06;11.50;;;9.10;;
4317;SDS011;2172;53.576;9.934;2022-12-20T09:07:35;10.97;;;9.20;;
4317;SDS011;2172;53.576;9.934;2022-12-20T09:10:03;10.50;;;8.40;;
4317;SDS011;2172;53.576;9.934;2022-12-20T09:12:30;9.60;;;8.07;;
4317;SDS011;2172;53.576;9.934;2022-12-20T09:14:58;14.47;;;8.47;;
4317;SDS011;2172;53.576;9.934;2022-12-20T09:17:25;10.37;;;7.80;;
4317;SDS011;2172;53.576;9.934;2022-12-20T09:19:52;13.67;;;8.47;;
4317;SDS011;2172;53.576;9.934;2022-12-20T09:22:20;10.07;;;7.30;;
4317;SDS011;2172;53.576;9.934;2022-12-20T09:24:49;11.77;;;8.60;;
4317;SDS011;2172;53.576;9.934;2022-12-20T09:27:16;11.90;;;9.23;;
4317;SDS011;2172;53.576;9.934;2022-12-20T09:29:43;11.13;;;7.80;;
4317;SDS011;2172;53.576;9.934;2022-12-20T09:32:11;9.90;;;8.53;;
4317;SDS011;2172;53.576;9.934;2022-12-20T09:34:38;9.73;;;8.73;;
4317;SDS011;2172;53.576;9.934;2022-12-20T09:37:06;11.87;;;8.03;;
4317;SDS011;2172;53.576;9.934;2022-12-20T09:39:33;12.83;;;9.53;;
4317;SDS011;2172;53.576;9.934;2022-12-20T09:42:02;9.50;;;7.90;;
4317;SDS011;2172;53.576;9.934;2022-12-20T09:44:34;11.80;;;8.07;;
4317;SDS011;2172;53.576;9.934;2022-12-20T09:47:03;11.70;;;9.17;;
4317;SDS011;2172;53.576;9.934;2022-12-20T09:49:32;11.83;;;9.43;;
4317;SDS011;2172;53.576;9.934;2022-12-20T09:52:05;10.70;;;9.60;;
4317;SDS011;2172;53.576;9.934;2022-12-20T09:54:37;11.43;;;10.17;;
4317;SDS011;2172;53.576;9.934;2022-12-20T09:57:10;14.03;;;10.03;;
4317;SDS011;2172;53.576;9.934;2022-12-20T09:59:41;11.03;;;9.50;;
4317;SDS011;2172;53.576;9.934;2022-12-20T10:02:10;10.80;;;7.83;;
4317;SDS011;2172;53.576;9.934;2022-12-20T10:04:37;14.37;;;10.80;;
4317;SDS011;2172;53.576;9.934;2022-12-20T10:07:13;15.20;;;9.60;;
4317;SDS011;2172;53.576;9.934;2022-12-20T10:09:47;13.77;;;10.57;;
4317;SDS011;2172;53.576;9.934;2022-12-20T10:12:23;13.70;;;10.60;;
4317;SDS011;2172;53.576;9.934;2022-12-20T10:15:00;13.17;;;10.60;;
4317;SDS011;2172;53.576;9.934;2022-12-20T10:17:34;12.93;;;10.10;;
4317;SDS011;2172;53.576;9.934;2022-12-20T10:20:06;15.10;;;11.37;;
4317;SDS011;2172;53.576;9.934;2022-12-20T10:22:39;16.40;;;11.20;;
4317;SDS011;2172;53.576;9.934;2022-12-20T10:25:13;15.83;;;11.60;;
4317;SDS011;2172;53.576;9.934;2022-12-20T10:27:43;16.27;;;11.30;;
4317;SDS011;2172;53.576;9.934;2022-12-20T10:30:12;13.97;;;11.40;;
4317;SDS011;2172;53.576;9.934;2022-12-20T10:32:40;11.30;;;8.40;;
4317;SDS011;2172;53.576;9.934;2022-12-20T10:35:16;14.20;;;9.90;;
4317;SDS011;2172;53.576;9.934;2022-12-20T10:37:55;14.53;;;9.70;;
4317;SDS011;2172;53.576;9.934;2022-12-20T10:40:24;12.20;;;9.23;;
4317;SDS011;2172;53.576;9.934;2022-12-20T10:42:53;15.93;;;9.50;;
4317;SDS011;2172;53.576;9.934;2022-12-20T10:45:26;13.10;;;9.30;;
4317;SDS011;2172;53.576;9.934;2022-12-20T10:47:57;12.97;;;9.27;;
4317;SDS011;2172;53.576;9.934;2022-12-20T10:50:25;11.33;;;9.07;;
4317;SDS011;2172;53.576;9.934;2022-12-20T10:53:02;11.00;;;8.10;;
4317;SDS011;2172;53.576;9.934;2022-12-20T10:55:35;14.60;;;9.30;;
4317;SDS011;2172;53.576;9.934;2022-12-20T10:58:04;12.10;;;7.70;;
4317;SDS011;2172;53.576;9.934;2022-12-20T11:00:32;10.60;;;7.90;;
4317;SDS011;2172;53.576;9.934;2022-12-20T11:03:09;10.07;;;7.90;;
4317;SDS011;2172;53.576;9.934;2022-12-20T11:05:37;8.23;;;7.40;;
4317;SDS011;2172;53.576;9.934;2022-12-20T11:08:12;7.10;;;6.47;;
4317;SDS011;2172;53.576;9.934;2022-12-20T11:10:39;13.40;;;7.47;;
4317;SDS011;2172;53.576;9.934;2022-12-20T11:13:17;12.20;;;7.43;;
4317;SDS011;2172;53.576;9.934;2022-12-20T11:15:46;8.90;;;6.47;;
4317;SDS011;2172;53.576;9.934;2022-12-20T11:18:16;8.33;;;6.73;;
4317;SDS011;2172;53.576;9.934;2022-12-20T11:20:46;7.50;;;6.53;;
4317;SDS011;2172;53.576;9.934;2022-12-20T11:23:17;9.07;;;5.93;;
4317;SDS011;2172;53.576;9.934;2022-12-20T11:25:50;10.37;;;7.10;;
4317;SDS011;2172;53.576;9.934;2022-12-20T11:28:29;6.80;;;6.10;;
4317;SDS011;2172;53.576;9.934;2022-12-20T11:31:01;7.27;;;6.23;;
4317;SDS011;2172;53.576;9.934;2022-12-20T11:33:45;8.90;;;8.00;;
4317;SDS011;2172;53.576;9.934;2022-12-20T11:36:16;9.67;;;6.13;;
4317;SDS011;2172;53.576;9.934;2022-12-20T11:38:45;6.20;;;5.60;;
4317;SDS011;2172;53.576;9.934;2022-12-20T11:41:17;7.50;;;6.40;;
4317;SDS011;2172;53.576;9.934;2022-12-20T11:43:50;8.50;;;6.10;;
4317;SDS011;2172;53.576;9.934;2022-12-20T11:46:23;7.80;;;6.07;;
4317;SDS011;2172;53.576;9.934;2022-12-20T11:48:57;8.00;;;6.17;;
4317;SDS011;2172;53.576;9.934;2022-12-20T11:51:34;8.47;;;6.50;;
4317;SDS011;2172;53.576;9.934;2022-12-20T11:54:07;10.80;;;6.07;;
4317;SDS011;2172;53.576;9.934;2022-12-20T11:56:38;10.57;;;6.27;;
4317;SDS011;2172;53.576;9.934;2022-12-20T11:59:09;9.60;;;5.60;;
4317;SDS011;2172;53.576;9.934;2022-12-20T12:01:39;6.20;;;5.60;;
4317;SDS011;2172;53.576;9.934;2022-12-20T12:04:09;10.83;;;6.43;;
4317;SDS011;2172;53.576;9.934;2022-12-20T12:06:39;6.37;;;5.70;;
4317;SDS011;2172;53.576;9.934;2022-12-20T12:09:11;7.17;;;6.20;;
4317;SDS011;2172;53.576;9.934;2022-12-20T12:11:40;9.83;;;5.97;;
4317;SDS011;2172;53.576;9.934;2022-12-20T12:14:13;8.13;;;7.20;;
4317;SDS011;2172;53.576;9.934;2022-12-20T12:16:42;7.47;;;6.07;;
4317;SDS011;2172;53.576;9.934;2022-12-20T12:19:11;10.17;;;6.40;;
4317;SDS011;2172;53.576;9.934;2022-12-20T12:21:41;9.33;;;5.90;;
4317;SDS011;2172;53.576;9.934;2022-12-20T12:24:12;7.13;;;6.40;;
4317;SDS011;2172;53.576;9.934;2022-12-20T12:26:45;8.53;;;6.80;;
4317;SDS011;2172;53.576;9.934;2022-12-20T12:29:14;15.43;;;7.97;;
4317;SDS011;2172;53.576;9.934;2022-12-20T12:31:42;7.83;;;6.57;;
4317;SDS011;2172;53.576;9.934;2022-12-20T12:34:13;7.97;;;6.67;;
4317;SDS011;2172;53.576;9.934;2022-12-20T12:36:54;7.67;;;6.87;;
4317;SDS011;2172;53.576;9.934;2022-12-20T12:39:41;8.40;;;6.60;;
4317;SDS011;2172;53.576;9.934;2022-12-20T12:44:59;10.57;;;6.80;;
4317;SDS011;2172;53.576;9.934;2022-12-20T12:47:33;9.13;;;7.47;;
4317;SDS011;2172;53.576;9.934;2022-12-20T12:50:00;8.30;;;6.90;;
4317;SDS011;2172;53.576;9.934;2022-12-20T12:52:34;9.50;;;8.03;;
4317;SDS011;2172;53.576;9.934;2022-12-20T12:55:04;10.17;;;8.03;;
4317;SDS011;2172;53.576;9.934;2022-12-20T12:57:54;8.70;;;7.60;;
4317;SDS011;2172;53.576;9.934;2022-12-20T13:03:12;10.17;;;8.20;;
4317;SDS011;2172;53.576;9.934;2022-12-20T13:05:40;9.67;;;8.23;;
4317;SDS011;2172;53.576;9.934;2022-12-20T13:08:14;10.47;;;8.27;;
4317;SDS011;2172;53.576;9.934;2022-12-20T13:11:00;11.00;;;8.27;;
4317;SDS011;2172;53.576;9.934;2022-12-20T13:13:28;11.97;;;7.80;;
4317;SDS011;2172;53.576;9.934;2022-12-20T13:16:11;12.20;;;8.87;;
4317;SDS011;2172;53.576;9.934;2022-12-20T13:21:37;11.80;;;9.27;;
4317;SDS011;2172;53.576;9.934;2022-12-20T13:35:27;11.63;;;9.23;;
4317;SDS011;2172;53.576;9.934;2022-12-20T13:37:57;11.53;;;9.03;;
4317;SDS011;2172;53.576;9.934;2022-12-20T13:40:30;12.13;;;8.03;;
4317;SDS011;2172;53.576;9.934;2022-12-20T13:43:01;9.10;;;8.00;;
4317;SDS011;2172;53.576;9.934;2022-12-20T13:45:30;9.90;;;8.13;;
4317;SDS011;2172;53.576;9.934;2022-12-20T13:47:58;11.73;;;8.60;;
4317;SDS011;2172;53.576;9.934;2022-12-20T13:50:29;13.33;;;9.20;;
4317;SDS011;2172;53.576;9.934;2022-12-20T13:53:01;10.90;;;8.70;;
4317;SDS011;2172;53.576;9.934;2022-12-20T13:55:30;9.93;;;7.37;;
4317;SDS011;2172;53.576;9.934;2022-12-20T13:58:02;11.37;;;8.60;;
4317;SDS011;2172;53.576;9.934;2022-12-20T14:00:30;13.23;;;9.40;;
4317;SDS011;2172;53.576;9.934;2022-12-20T14:02:57;9.80;;;8.77;;
4317;SDS011;2172;53.576;9.934;2022-12-20T14:05:30;10.57;;;8.53;;
4317;SDS011;2172;53.576;9.934;2022-12-20T14:07:58;11.57;;;9.63;;
4317;SDS011;2172;53.576;9.934;2022-12-20T14:10:28;16.57;;;9.50;;
4317;SDS011;2172;53.576;9.934;2022-12-20T14:12:56;12.43;;;9.40;;
4317;SDS011;2172;53.576;9.934;2022-12-20T14:15:25;15.27;;;9.93;;
4317;SDS011;2172;53.576;9.934;2022-12-20T14:17:53;11.73;;;8.77;;
4317;SDS011;2172;53.576;9.934;2022-12-20T14:20:22;14.27;;;9.50;;
4317;SDS011;2172;53.576;9.934;2022-12-20T14:22:51;16.20;;;9.90;;
4317;SDS011;2172;53.576;9.934;2022-12-20T14:28:10;13.00;;;7.80;;
4317;SDS011;2172;53.576;9.934;2022-12-20T14:30:40;11.20;;;9.93;;
4317;SDS011;2172;53.576;9.934;2022-12-20T14:33:15;11.13;;;8.80;;
4317;SDS011;2172;53.576;9.934;2022-12-20T14:35:45;13.23;;;9.80;;
4317;SDS011;2172;53.576;9.934;2022-12-20T14:38:18;11.83;;;9.20;;
4317;SDS011;2172;53.576;9.934;2022-12-20T14:40:46;17.53;;;9.97;;
4317;SDS011;2172;53.576;9.934;2022-12-20T14:43:15;10.73;;;8.90;;
4317;SDS011;2172;53.576;9.934;2022-12-20T14:45:50;11.40;;;8.90;;
4317;SDS011;2172;53.576;9.934;2022-12-20T14:48:32;11.50;;;10.07;;
4317;SDS011;2172;53.576;9.934;2022-12-20T14:50:59;12.93;;;9.70;;
4317;SDS011;2172;53.576;9.934;2022-12-20T14:53:30;13.10;;;10.10;;
4317;SDS011;2172;53.576;9.934;2022-12-20T14:55:58;19.13;;;10.73;;
4317;SDS011;2172;53.576;9.934;2022-12-20T14:58:28;15.10;;;10.37;;
4317;SDS011;2172;53.576;9.934;2022-12-20T15:00:57;17.47;;;12.07;;
4317;SDS011;2172;53.576;9.934;2022-12-20T15:03:24;13.37;;;10.40;;
4317;SDS011;2172;53.576;9.934;2022-12-20T15:05:52;14.10;;;10.63;;
4317;SDS011;2172;53.576;9.934;2022-12-20T15:08:21;11.57;;;10.03;;
4317;SDS011;2172;53.576;9.934;2022-12-20T15:10:52;16.10;;;10.27;;
4317;SDS011;2172;53.576;9.934;2022-12-20T15:13:21;12.93;;;11.10;;
4317;SDS011;2172;53.576;9.934;2022-12-20T15:15:50;13.10;;;10.70;;
4317;SDS011;2172;53.576;9.934;2022-12-20T15:18:18;15.50;;;11.10;;
4317;SDS011;2172;53.576;9.934;2022-12-20T15:20:47;13.23;;;10.90;;
4317;SDS011;2172;53.576;9.934;2022-12-20T15:23:15;14.13;;;11.47;;
4317;SDS011;2172;53.576;9.934;2022-12-20T15:25:43;13.73;;;10.87;;
4317;SDS011;2172;53.576;9.934;2022-12-20T15:28:12;18.60;;;12.07;;
4317;SDS011;2172;53.576;9.934;2022-12-20T15:30:39;16.53;;;10.37;;
4317;SDS011;2172;53.576;9.934;2022-12-20T15:33:09;11.43;;;9.70;;
4317;SDS011;2172;53.576;9.934;2022-12-20T15:35:40;16.60;;;10.87;;
4317;SDS011;2172;53.576;9.934;2022-12-20T15:38:08;14.40;;;11.10;;
4317;SDS011;2172;53.576;9.934;2022-12-20T15:40:38;16.00;;;11.23;;
4317;SDS011;2172;53.576;9.934;2022-12-20T15:43:07;14.50;;;11.07;;